Time;durP1;ratioP1;P1;durP2;ratioP2;P2;SDS_P1;SDS_P2;PMS_P1;PMS_P2;Temp;Humidity;BMP_temperature;BMP_pressure;BME280_temperature;BME280_humidity;BME280_pressure;Samples;Min_cycle;Max_cycle;Signal;HPM_P1;HPM_P2
2022/02/02 00:00:38;;;;;;;21.45;4.55;;;14.90;66.20;;;;;;4180633;28;20044;-62
2022/02/02 00:03:06;;;;;;;28.00;3.75;;;14.80;65.80;;;;;;4178258;28;20052;-61
2022/02/02 00:05:34;;;;;;;24.17;4.75;;;14.80;67.10;;;;;;4178437;28;20049;-61
2022/02/02 00:08:01;;;;;;;24.73;4.60;;;14.80;68.10;;;;;;4177873;28;20503;-61
2022/02/02 00:10:47;;;;;;;24.00;4.90;;;14.90;69.40;;;;;;4178091;28;20456;-61
2022/02/02 00:13:13;;;;;;;26.15;4.60;;;15.00;68.20;;;;;;4178137;28;20048;-61
2022/02/02 00:15:47;;;;;;;20.05;3.70;;;15.20;67.50;;;;;;4178245;28;20533;-61
2022/02/02 00:18:33;;;;;;;26.00;5.20;;;15.20;67.30;;;;;;4177601;28;20040;-61
2022/02/02 00:20:59;;;;;;;25.25;4.63;;;15.30;67.20;;;;;;4194097;28;20064;-61
2022/02/02 00:23:26;;;;;;;24.63;4.97;;;15.30;66.70;;;;;;4193927;28;20526;-62
2022/02/02 00:25:54;;;;;;;26.27;5.20;;;15.30;66.50;;;;;;4194355;28;20485;-61
2022/02/02 00:28:19;;;;;;;20.42;4.57;;;15.30;66.70;;;;;;4187431;28;20064;-61
2022/02/02 00:30:42;;;;;;;25.20;4.65;;;15.30;66.10;;;;;;4191026;28;20055;-62
2022/02/02 00:33:18;;;;;;;21.30;4.25;;;15.20;66.30;;;;;;4194499;28;20060;-61
2022/02/02 00:35:44;;;;;;;23.67;4.45;;;15.20;66.70;;;;;;4194249;28;20048;-61
2022/02/02 00:38:06;;;;;;;30.63;4.22;;;15.20;67.70;;;;;;4193878;28;20040;-61
2022/02/02 00:40:28;;;;;;;20.35;4.38;;;15.10;66.90;;;;;;4182189;28;20053;-65
2022/02/02 00:42:51;;;;;;;28.17;5.10;;;15.10;67.20;;;;;;4177460;28;20056;-65
2022/02/02 00:45:13;;;;;;;17.90;3.97;;;15.20;67.60;;;;;;4183365;28;20098;-65
2022/02/02 00:47:39;;;;;;;27.02;5.30;;;15.20;67.90;;;;;;4182604;28;20041;-65
2022/02/02 00:50:01;;;;;;;20.38;3.92;;;15.20;68.20;;;;;;4185240;28;20048;-65
2022/02/02 00:52:23;;;;;;;19.73;3.83;;;15.30;67.10;;;;;;4194126;28;20459;-65
2022/02/02 00:54:47;;;;;;;26.20;4.95;;;15.40;67.00;;;;;;4193576;28;20093;-65
2022/02/02 00:57:09;;;;;;;14.98;3.92;;;15.50;66.60;;;;;;4193884;28;20040;-65
2022/02/02 00:59:31;;;;;;;21.58;4.03;;;15.50;67.40;;;;;;4190250;28;20045;-65
2022/02/02 01:01:53;;;;;;;22.42;3.90;;;15.50;66.30;;;;;;4179277;28;20053;-65
2022/02/02 01:04:17;;;;;;;27.83;4.88;;;15.60;66.30;;;;;;4193420;28;20044;-65
2022/02/02 01:06:43;;;;;;;17.95;3.35;;;15.60;66.20;;;;;;4193529;28;20082;-65
2022/02/02 01:09:16;;;;;;;18.67;3.47;;;15.60;66.10;;;;;;4193556;28;20123;-65
2022/02/02 01:20:01;;;;;;;17.65;3.45;;;15.50;66.00;;;;;;4185037;28;20407;-64
2022/02/02 01:27:46;;;;;;;17.75;3.78;;;15.50;66.10;;;;;;4177591;28;20056;-66
2022/02/02 01:27:51;;;;;;;20.17;3.67;;;15.50;66.20;;;;;;4186198;28;20481;-64
2022/02/02 01:30:13;;;;;;;17.23;2.90;;;15.50;67.10;;;;;;4185942;28;20469;-66
2022/02/02 01:32:35;;;;;;;19.42;3.22;;;15.50;66.30;;;;;;4178701;28;20053;-66
2022/02/02 01:34:59;;;;;;;14.10;3.47;;;15.50;66.50;;;;;;4178555;28;20056;-66
2022/02/02 01:37:21;;;;;;;17.33;3.58;;;15.50;66.40;;;;;;4177005;28;20067;-64
2022/02/02 01:39:43;;;;;;;12.05;3.30;;;15.60;66.20;;;;;;4180827;28;20395;-64
2022/02/02 01:42:10;;;;;;;17.27;2.85;;;15.70;65.80;;;;;;4193002;28;20041;-64
2022/02/02 01:44:39;;;;;;;18.63;3.85;;;15.70;65.50;;;;;;4192789;28;20044;-66
2022/02/02 01:47:03;;;;;;;18.30;4.10;;;15.70;65.30;;;;;;4192741;28;20055;-64
2022/02/02 01:52:36;;;;;;;29.50;5.28;;;15.70;66.10;;;;;;4178010;28;20504;-64
2022/02/02 01:55:02;;;;;;;17.27;3.95;;;15.80;65.40;;;;;;4192933;28;20080;-63
2022/02/02 02:00:05;;;;;;;21.38;4.28;;;15.70;65.50;;;;;;4187086;28;20048;-63
2022/02/02 02:02:27;;;;;;;16.42;3.35;;;15.60;65.40;;;;;;4193090;28;20531;-63
2022/02/02 02:04:50;;;;;;;19.35;4.00;;;15.60;65.70;;;;;;4192967;28;20594;-63
2022/02/02 02:07:13;;;;;;;16.20;3.38;;;15.60;66.00;;;;;;4192868;28;20056;-64
2022/02/02 02:09:35;;;;;;;22.95;4.13;;;15.50;66.80;;;;;;4188549;28;20544;-64
2022/02/02 02:12:01;;;;;;;22.63;4.25;;;15.50;65.90;;;;;;4176255;28;20049;-64
2022/02/02 02:14:41;;;;;;;19.38;3.45;;;15.60;66.20;;;;;;4176208;28;20497;-64
2022/02/02 02:17:04;;;;;;;15.90;3.25;;;15.60;66.00;;;;;;4175946;28;20072;-63
2022/02/02 02:19:26;;;;;;;15.07;4.70;;;15.70;65.80;;;;;;4178074;28;20075;-63
2022/02/02 02:21:49;;;;;;;18.25;3.88;;;15.70;65.60;;;;;;4192270;28;20052;-63
2022/02/02 02:24:13;;;;;;;17.45;3.85;;;15.80;65.00;;;;;;4192361;28;20041;-64
2022/02/02 02:26:39;;;;;;;18.05;3.50;;;15.90;64.20;;;;;;4190838;28;20044;-65
2022/02/02 02:29:18;;;;;;;11.13;3.03;;;16.00;63.40;;;;;;4176008;28;20132;-63
2022/02/02 02:31:51;;;;;;;18.42;3.33;;;16.10;62.90;;;;;;4176060;28;20127;-63
2022/02/02 02:34:26;;;;;;;14.93;2.97;;;16.10;62.50;;;;;;4175922;28;20052;-63
2022/02/02 02:37:15;;;;;;;14.05;3.90;;;16.10;62.80;;;;;;4174519;28;20045;-63
2022/02/02 02:39:49;;;;;;;14.02;3.38;;;16.10;63.20;;;;;;4179826;28;20047;-63
2022/02/02 02:55:55;;;;;;;20.75;5.00;;;15.80;64.90;;;;;;4169055;28;20052;-63
2022/02/02 02:58:33;;;;;;;28.92;4.68;;;15.80;64.50;;;;;;4190020;28;20041;-63
2022/02/02 03:01:15;;;;;;;25.48;5.20;;;15.80;64.80;;;;;;4191216;28;20102;-64
2022/02/02 03:30:37;;;;;;;13.73;2.67;;;15.80;64.10;;;;;;4194577;28;20048;-64
2022/02/02 03:34:37;;;;;;;12.20;2.88;;;15.80;64.20;;;;;;4178167;28;20127;-64
2022/02/02 03:52:16;;;;;;;20.80;4.43;;;15.90;63.90;;;;;;4179221;28;20056;-64
2022/02/02 03:54:55;;;;;;;16.02;3.58;;;15.90;63.90;;;;;;4192404;28;20052;-63
2022/02/02 03:57:31;;;;;;;20.38;4.43;;;16.00;63.70;;;;;;4177995;28;20481;-64
2022/02/02 04:00:18;;;;;;;23.75;4.78;;;16.10;62.40;;;;;;4177830;28;20571;-64
2022/02/02 04:03:06;;;;;;;24.38;4.47;;;16.20;62.90;;;;;;4178070;28;20527;-64
2022/02/02 04:05:36;;;;;;;23.33;4.55;;;16.20;62.90;;;;;;4182683;28;20048;-64
2022/02/02 04:08:17;;;;;;;20.23;4.28;;;16.10;62.50;;;;;;4192507;28;20052;-63
2022/02/02 04:10:38;;;;;;;17.92;4.53;;;16.10;63.20;;;;;;4194258;28;20060;-64
2022/02/02 04:13:10;;;;;;;20.10;4.32;;;16.00;62.90;;;;;;4189451;28;20053;-64
2022/02/02 04:55:47;;;;;;;19.33;3.67;;;15.60;64.50;;;;;;4193459;28;20825;-64
2022/02/02 04:58:20;;;;;;;17.00;4.47;;;15.60;64.00;;;;;;4185176;28;20053;-63
2022/02/02 05:03:51;;;;;;;21.70;4.93;;;15.70;64.10;;;;;;4186113;28;20140;-63
2022/02/02 05:06:20;;;;;;;14.95;3.47;;;15.70;63.90;;;;;;4193665;28;20051;-63
2022/02/02 05:08:49;;;;;;;23.05;3.95;;;15.70;64.00;;;;;;4193467;28;20098;-63
2022/02/02 05:11:26;;;;;;;22.92;3.80;;;15.70;63.80;;;;;;4193912;28;20106;-64
2022/02/02 05:16:46;;;;;;;24.10;4.40;;;15.70;64.30;;;;;;4178193;28;20405;-64
2022/02/02 05:19:55;;;;;;;24.55;4.95;;;15.70;64.30;;;;;;4176731;28;20056;-64
2022/02/02 05:41:27;;;;;;;23.25;4.95;;;16.20;63.30;;;;;;4176533;28;19924;-63
2022/02/02 05:44:03;;;;;;;28.10;5.80;;;16.20;63.00;;;;;;4191513;28;20048;-63
2022/02/02 05:49:20;;;;;;;22.80;4.30;;;16.30;62.60;;;;;;4192606;28;20052;-63
2022/02/02 05:51:49;;;;;;;20.58;3.38;;;16.20;62.50;;;;;;4192445;28;20048;-63
2022/02/02 05:54:11;;;;;;;23.75;4.78;;;16.20;62.90;;;;;;4175952;28;20094;-64
2022/02/02 05:56:40;;;;;;;18.63;4.60;;;16.10;63.20;;;;;;4176111;28;20053;-64
2022/02/02 05:59:02;;;;;;;25.92;5.13;;;16.10;63.40;;;;;;4176432;28;20486;-63
2022/02/02 06:01:26;;;;;;;16.40;4.30;;;16.10;63.70;;;;;;4176319;28;20069;-63
2022/02/02 06:03:53;;;;;;;26.05;4.38;;;16.10;63.70;;;;;;4176497;28;20094;-64
2022/02/02 06:06:15;;;;;;;30.70;5.32;;;16.10;63.80;;;;;;4175992;28;20095;-64
2022/02/02 06:08:43;;;;;;;20.90;4.03;;;16.00;63.60;;;;;;4175999;28;20064;-65
2022/02/02 06:11:06;;;;;;;24.13;4.63;;;16.00;63.60;;;;;;4191871;28;24956;-63
2022/02/02 06:13:39;;;;;;;27.85;5.30;;;16.00;63.70;;;;;;4179746;28;20404;-63
2022/02/02 06:16:02;;;;;;;26.00;5.45;;;16.00;63.80;;;;;;4175461;28;20055;-63
2022/02/02 06:18:28;;;;;;;29.92;4.38;;;16.00;63.30;;;;;;4189443;28;20048;-63
2022/02/02 06:20:55;;;;;;;26.90;5.88;;;16.00;62.70;;;;;;4192643;28;20094;-63
2022/02/02 06:23:29;;;;;;;29.30;5.93;;;15.90;63.40;;;;;;4180871;28;20056;-63
2022/02/02 06:25:54;;;;;;;35.67;5.47;;;16.00;63.20;;;;;;4175959;28;20060;-63
2022/02/02 06:28:23;;;;;;;35.33;7.10;;;16.10;63.30;;;;;;4175482;28;20059;-63
2022/02/02 06:30:46;;;;;;;24.98;5.20;;;16.20;62.90;;;;;;4189953;28;20558;-63
2022/02/02 06:33:12;;;;;;;30.13;6.15;;;16.30;62.50;;;;;;4183124;28;20052;-63
2022/02/02 06:35:34;;;;;;;29.23;5.82;;;16.40;62.10;;;;;;4173709;28;20091;-63
2022/02/02 06:37:57;;;;;;;31.88;5.03;;;16.50;61.20;;;;;;4175812;28;20126;-63
2022/02/02 06:40:23;;;;;;;28.02;4.90;;;16.50;61.50;;;;;;4176142;28;20044;-64
2022/02/02 06:42:46;;;;;;;25.88;5.70;;;16.40;61.60;;;;;;4181152;28;20469;-63
2022/02/02 06:45:11;;;;;;;23.73;6.15;;;16.40;61.90;;;;;;4177913;28;20127;-62
2022/02/02 06:47:35;;;;;;;30.45;4.95;;;16.30;62.20;;;;;;4176365;28;20460;-63
2022/02/02 06:50:06;;;;;;;21.20;4.85;;;16.30;62.60;;;;;;4185640;28;20212;-62
2022/02/02 06:52:37;;;;;;;21.05;4.88;;;16.20;62.70;;;;;;4186557;28;20127;-65
2022/02/02 06:55:08;;;;;;;28.90;5.82;;;16.30;62.90;;;;;;4175939;28;20800;-65
2022/02/02 06:57:47;;;;;;;24.40;4.25;;;16.30;63.40;;;;;;4176392;28;20070;-65
2022/02/02 07:00:22;;;;;;;24.52;5.38;;;16.30;63.40;;;;;;4175157;28;20049;-64
2022/02/02 07:02:54;;;;;;;27.60;5.55;;;16.30;63.30;;;;;;4182144;28;20174;-65
2022/02/02 07:05:33;;;;;;;24.83;5.15;;;16.20;63.30;;;;;;4192131;28;20131;-65
2022/02/02 07:08:29;;;;;;;25.00;4.93;;;16.20;63.50;;;;;;4192210;28;20500;-65
2022/02/02 07:11:19;;;;;;;26.38;4.43;;;16.10;63.70;;;;;;4175374;28;20068;-65
2022/02/02 07:13:54;;;;;;;21.95;4.93;;;16.10;64.20;;;;;;4175541;28;20052;-65
2022/02/02 07:16:30;;;;;;;25.63;4.60;;;16.10;64.20;;;;;;4175446;28;20120;-65
2022/02/02 07:19:06;;;;;;;22.83;6.18;;;16.20;63.80;;;;;;4174882;28;20045;-65
2022/02/02 07:21:46;;;;;;;22.45;5.03;;;16.40;63.20;;;;;;4175864;28;20045;-65
2022/02/02 07:24:23;;;;;;;23.33;4.75;;;16.50;63.00;;;;;;4185054;28;20040;-65
2022/02/02 07:29:29;;;;;;;26.13;4.68;;;16.50;62.70;;;;;;4148397;28;20817;-65
2022/02/02 07:32:06;;;;;;;23.13;4.35;;;16.50;62.70;;;;;;4177891;28;20061;-65
2022/02/02 07:34:41;;;;;;;24.05;7.80;;;16.50;62.80;;;;;;4192067;28;20048;-63
2022/02/02 07:37:09;;;;;;;13.32;3.72;;;16.40;62.10;;;;;;4191831;28;20052;-63
2022/02/02 07:39:34;;;;;;;12.98;4.05;;;16.40;62.50;;;;;;4192108;28;20380;-64
2022/02/02 07:42:03;;;;;;;13.30;3.83;;;16.40;62.30;;;;;;4187761;28;20084;-64
2022/02/02 07:44:31;;;;;;;16.55;3.42;;;16.40;62.80;;;;;;4187742;28;20074;-65
2022/02/02 07:46:56;;;;;;;24.77;4.35;;;16.30;61.70;;;;;;4191292;28;20155;-65
2022/02/02 07:49:28;;;;;;;20.83;3.88;;;16.30;63.60;;;;;;4183210;28;20048;-65
2022/02/02 07:51:51;;;;;;;18.27;3.70;;;16.20;64.10;;;;;;4178572;28;20069;-68
2022/02/02 07:54:19;;;;;;;22.10;3.30;;;16.20;68.20;;;;;;4178376;28;20091;-67
2022/02/02 07:56:52;;;;;;;19.35;3.45;;;16.20;69.00;;;;;;4177645;28;20056;-66
2022/02/02 07:59:19;;;;;;;20.17;3.88;;;16.20;69.50;;;;;;4177848;28;20103;-66
2022/02/02 08:01:43;;;;;;;15.50;3.83;;;16.30;69.30;;;;;;4179978;28;20381;-64
2022/02/02 08:04:13;;;;;;;16.42;4.00;;;16.30;68.80;;;;;;4177570;28;20122;-64
2022/02/02 08:06:38;;;;;;;17.92;4.85;;;16.30;68.30;;;;;;4179616;28;20037;-64
2022/02/02 08:09:00;;;;;;;20.08;4.15;;;16.30;68.70;;;;;;4194324;28;20048;-66
2022/02/02 08:11:29;;;;;;;24.42;4.32;;;16.40;69.00;;;;;;4192092;28;20102;-64
2022/02/02 08:14:06;;;;;;;25.33;4.40;;;16.60;66.50;;;;;;4193606;28;20049;-64
2022/02/02 08:16:30;;;;;;;22.38;4.18;;;16.70;66.30;;;;;;4192555;28;20048;-65
2022/02/02 08:18:54;;;;;;;20.52;4.43;;;16.70;65.90;;;;;;4178036;28;20048;-64
2022/02/02 08:21:18;;;;;;;17.40;3.67;;;16.80;65.40;;;;;;4192032;28;20113;-64
2022/02/02 08:23:40;;;;;;;20.48;4.57;;;16.80;65.50;;;;;;4189566;28;20041;-65
2022/02/02 08:26:05;;;;;;;27.52;4.00;;;16.80;64.50;;;;;;4187389;28;20048;-64
2022/02/02 08:28:27;;;;;;;28.90;5.63;;;16.70;65.60;;;;;;4194105;28;20105;-64
2022/02/02 08:30:50;;;;;;;26.58;4.55;;;16.60;65.20;;;;;;4189907;28;20424;-64
2022/02/02 08:33:18;;;;;;;25.88;6.10;;;16.60;65.60;;;;;;4194062;28;20040;-65
2022/02/02 08:35:45;;;;;;;23.02;4.50;;;16.60;65.40;;;;;;4184431;28;21966;-64
2022/02/02 08:38:14;;;;;;;24.13;4.82;;;16.70;65.00;;;;;;4188707;28;20045;-64
2022/02/02 08:40:39;;;;;;;34.70;5.72;;;16.70;65.10;;;;;;4187296;28;20049;-65
2022/02/02 08:43:08;;;;;;;21.05;5.05;;;16.70;65.30;;;;;;4191649;28;20041;-65
2022/02/02 08:45:33;;;;;;;23.42;4.07;;;16.60;65.70;;;;;;4192868;28;20051;-66
2022/02/02 08:47:59;;;;;;;28.13;4.47;;;16.60;65.70;;;;;;4194103;28;20358;-65
2022/02/02 08:50:29;;;;;;;29.08;4.88;;;16.50;65.30;;;;;;4191771;28;20068;-65
2022/02/02 08:52:55;;;;;;;30.05;5.00;;;16.40;65.00;;;;;;4175922;28;20479;-66
2022/02/02 08:55:56;;;;;;;20.60;3.55;;;16.40;65.50;;;;;;4177172;28;20045;-64
2022/02/02 08:58:20;;;;;;;18.95;4.00;;;16.30;66.20;;;;;;4181716;28;20044;-64
2022/02/02 09:00:43;;;;;;;21.73;4.03;;;16.20;66.50;;;;;;4175654;28;20048;-64
2022/02/02 09:05:45;;;;;;;25.33;4.88;;;16.00;66.20;;;;;;4176976;28;20040;-65
2022/02/02 09:08:08;;;;;;;25.95;5.25;;;15.90;66.70;;;;;;4183541;28;20056;-65
2022/02/02 09:24:08;;;;;;;;;;;15.50;67.50;;;;;;4159373;28;20055;-65
2022/02/02 09:32:13;;;;;;;28.80;5.75;;;15.50;68.60;;;;;;4187055;28;20055;-65
2022/02/02 09:34:35;;;;;;;29.95;4.80;;;15.50;67.90;;;;;;4176461;28;20140;-66
2022/02/02 09:36:57;;;;;;;30.27;4.90;;;15.60;67.40;;;;;;4176707;28;20076;-66
2022/02/02 09:39:26;;;;;;;24.10;4.07;;;15.60;66.90;;;;;;4176504;28;20045;-67
2022/02/02 09:42:00;;;;;;;32.45;5.85;;;15.60;66.50;;;;;;4188435;28;20040;-68
2022/02/02 09:44:24;;;;;;;30.90;5.45;;;15.70;66.50;;;;;;4181491;28;20044;-67
2022/02/02 09:46:54;;;;;;;27.33;4.65;;;15.60;66.40;;;;;;4177412;28;22498;-68
2022/02/02 09:49:23;;;;;;;23.35;5.43;;;15.60;66.40;;;;;;4176093;28;20053;-67
2022/02/02 09:51:49;;;;;;;24.02;4.00;;;15.60;66.60;;;;;;4176392;28;20468;-67
2022/02/02 09:54:16;;;;;;;30.05;5.07;;;15.60;66.50;;;;;;4176305;28;20045;-67
2022/02/02 09:57:14;;;;;;;29.10;4.60;;;15.60;66.50;;;;;;4177145;28;20110;-67
2022/02/02 10:02:47;;;;;;;28.77;4.90;;;15.60;66.30;;;;;;4169606;28;20517;-67
2022/02/02 10:05:15;;;;;;;17.92;3.25;;;15.50;66.10;;;;;;4184661;28;20076;-67
2022/02/02 10:08:06;;;;;;;17.33;3.55;;;15.60;66.10;;;;;;4175057;28;20051;-67
2022/02/02 10:13:22;;;;;;;15.55;3.40;;;15.60;66.10;;;;;;4175670;28;20049;-68
2022/02/02 10:15:54;;;;;;;19.33;3.25;;;15.60;66.20;;;;;;4175976;28;20049;-69
2022/02/02 10:18:19;;;;;;;10.32;2.72;;;15.60;66.20;;;;;;4185572;28;20050;-67
2022/02/02 10:20:42;;;;;;;12.93;2.40;;;15.50;66.40;;;;;;4188247;28;20493;-68
2022/02/02 10:23:06;;;;;;;14.77;2.65;;;15.50;66.20;;;;;;4175868;28;20048;-69
2022/02/02 10:25:31;;;;;;;11.90;2.72;;;15.50;65.90;;;;;;4176050;28;20148;-68
2022/02/02 10:28:05;;;;;;;17.08;2.83;;;15.40;65.80;;;;;;4175611;28;20051;-68
2022/02/02 10:30:29;;;;;;;18.88;4.15;;;15.40;65.80;;;;;;4175333;28;20052;-68
2022/02/02 10:32:52;;;;;;;13.73;2.67;;;15.40;66.00;;;;;;4186764;28;20493;-67
2022/02/02 10:35:30;;;;;;;15.27;3.67;;;15.30;66.80;;;;;;4176506;28;20102;-67
2022/02/02 10:38:11;;;;;;;11.77;2.22;;;15.30;66.20;;;;;;4185660;28;20054;-66
2022/02/02 10:40:44;;;;;;;16.42;3.13;;;15.30;66.80;;;;;;4192321;28;20044;-65
2022/02/02 10:43:21;;;;;;;15.50;3.10;;;15.20;66.60;;;;;;4179747;28;20053;-66
2022/02/02 10:45:43;;;;;;;17.45;3.80;;;15.20;66.80;;;;;;4175856;28;20041;-66
2022/02/02 10:48:16;;;;;;;9.25;2.55;;;15.20;67.00;;;;;;4175870;28;20067;-66
2022/02/02 10:50:48;;;;;;;24.30;4.20;;;15.10;67.40;;;;;;4179903;28;20048;-66
2022/02/02 10:53:26;;;;;;;22.85;3.53;;;15.10;67.30;;;;;;4191392;28;20765;-69
2022/02/02 10:56:05;;;;;;;19.70;3.75;;;15.10;67.40;;;;;;4187962;28;20041;-66
2022/02/02 10:58:42;;;;;;;17.42;3.88;;;15.10;67.80;;;;;;4175520;28;20079;-68
2022/02/02 11:01:24;;;;;;;17.75;3.50;;;15.00;67.70;;;;;;4175502;28;20194;-69
2022/02/02 11:06:38;;;;;;;22.98;4.10;;;15.00;68.00;;;;;;4175889;28;20056;-66
2022/02/02 11:09:00;;;;;;;20.48;3.97;;;15.00;68.10;;;;;;4175850;28;20072;-68
2022/02/02 11:11:23;;;;;;;18.02;3.45;;;15.00;67.90;;;;;;4175602;28;20044;-67
2022/02/02 11:13:46;;;;;;;23.35;4.22;;;15.00;68.00;;;;;;4175305;28;20044;-67
2022/02/02 11:16:11;;;;;;;15.75;3.00;;;14.90;67.60;;;;;;4175901;28;20111;-67
2022/02/02 11:18:36;;;;;;;25.33;4.63;;;14.90;67.90;;;;;;4175622;28;20070;-68
2022/02/02 11:21:07;;;;;;;17.52;3.03;;;14.90;67.40;;;;;;4191212;28;20072;-68
2022/02/02 11:23:42;;;;;;;23.13;3.53;;;14.90;67.50;;;;;;4180455;28;20114;-67
2022/02/02 11:26:07;;;;;;;18.65;3.67;;;14.90;67.70;;;;;;4178608;28;20060;-67
2022/02/02 11:28:32;;;;;;;17.35;3.88;;;14.90;67.60;;;;;;4189673;28;20040;-67
2022/02/02 11:31:04;;;;;;;8.27;2.03;;;14.90;67.70;;;;;;4189652;28;20575;-66
2022/02/02 11:33:26;;;;;;;14.55;2.67;;;14.90;67.30;;;;;;4179446;28;20061;-65
2022/02/02 11:35:51;;;;;;;29.40;3.58;;;14.90;68.00;;;;;;4178440;28;20052;-65
2022/02/02 11:38:44;;;;;;;14.27;2.47;;;14.90;68.20;;;;;;4178524;28;20423;-65
2022/02/02 11:41:51;;;;;;;12.95;2.42;;;14.90;68.20;;;;;;4178247;28;20049;-66
2022/02/02 11:44:21;;;;;;;17.60;3.53;;;14.90;68.10;;;;;;4178490;28;20059;-66
2022/02/02 11:46:54;;;;;;;18.98;2.67;;;14.90;68.20;;;;;;4192726;28;20114;-66
2022/02/02 11:49:20;;;;;;;11.23;3.30;;;14.90;67.50;;;;;;4192383;28;20469;-66
2022/02/02 11:51:43;;;;;;;14.82;2.75;;;14.90;67.30;;;;;;4191394;28;20056;-66
2022/02/02 11:54:08;;;;;;;14.23;2.88;;;14.90;67.90;;;;;;4192958;28;20132;-66
2022/02/02 11:56:30;;;;;;;9.60;1.75;;;14.80;66.70;;;;;;4186769;28;20064;-66
2022/02/02 11:58:52;;;;;;;13.70;2.95;;;14.80;66.20;;;;;;4178325;28;20137;-66
2022/02/02 12:01:39;;;;;;;12.77;2.83;;;14.80;66.80;;;;;;4178335;28;20130;-66
2022/02/02 12:04:21;;;;;;;14.02;2.63;;;14.80;65.50;;;;;;4178081;28;20056;-66
2022/02/02 12:06:57;;;;;;;13.55;3.00;;;14.80;65.80;;;;;;4177990;28;20045;-66
2022/02/02 12:09:36;;;;;;;13.68;2.63;;;14.80;65.90;;;;;;4179139;28;20051;-66
2022/02/02 12:45:19;;;;;;;14.75;2.10;;;14.50;67.50;;;;;;4194713;28;20675;-68
2022/02/02 12:47:58;;;;;;;17.77;2.80;;;14.50;67.20;;;;;;4191813;28;20492;-62
2022/02/02 12:53:52;;;;;;;10.60;2.30;;;14.50;69.50;;;;;;4178511;28;20518;-61
2022/02/02 12:56:28;;;;;;;14.90;2.63;;;14.60;69.10;;;;;;4191183;28;20403;-59
2022/02/02 12:58:52;;;;;;;12.68;2.53;;;14.60;68.90;;;;;;4193476;28;20051;-61
2022/02/02 13:01:14;;;;;;;16.15;2.55;;;14.60;68.60;;;;;;4186701;28;20114;-61
2022/02/02 13:03:38;;;;;;;9.90;2.00;;;14.60;68.50;;;;;;4177194;28;20493;-61
2022/02/02 13:06:01;;;;;;;12.13;2.42;;;14.60;68.50;;;;;;4177653;28;20076;-60
2022/02/02 13:08:23;;;;;;;13.43;2.75;;;14.60;68.00;;;;;;4177934;28;20101;-60
2022/02/02 13:10:46;;;;;;;13.63;3.28;;;14.60;68.00;;;;;;4193797;28;20048;-61
2022/02/02 13:13:11;;;;;;;8.85;1.83;;;14.60;68.40;;;;;;4177098;28;20644;-61
2022/02/02 13:15:40;;;;;;;9.93;2.35;;;14.50;68.90;;;;;;4177549;28;20044;-61
2022/02/02 13:18:10;;;;;;;14.73;2.28;;;14.50;69.50;;;;;;4175609;28;20048;-61
2022/02/02 13:20:45;;;;;;;13.13;2.38;;;14.50;69.00;;;;;;4177085;28;20481;-61
2022/02/02 13:23:15;;;;;;;15.15;2.50;;;14.50;69.30;;;;;;4185315;28;20126;-61
2022/02/02 13:25:39;;;;;;;16.13;4.20;;;14.50;69.20;;;;;;4193251;28;20056;-61
2022/02/02 13:28:02;;;;;;;18.55;2.67;;;14.50;69.50;;;;;;4176961;28;20559;-61
2022/02/02 13:30:44;;;;;;;17.08;3.13;;;14.50;69.40;;;;;;4177405;28;20500;-60
2022/02/02 13:33:26;;;;;;;16.50;3.60;;;14.50;69.10;;;;;;4177007;28;20052;-61
2022/02/02 13:36:19;;;;;;;17.65;3.75;;;14.50;69.40;;;;;;4184609;28;20037;-61
2022/02/02 13:44:21;;;;;;;10.65;1.73;;;14.60;70.70;;;;;;4192937;28;20044;-61
2022/02/02 13:47:02;;;;;;;8.98;1.73;;;14.70;70.60;;;;;;4192212;28;20040;-61
2022/02/02 13:50:00;;;;;;;9.48;1.65;;;14.80;70.20;;;;;;4190575;28;20490;-61
2022/02/02 13:52:45;;;;;;;10.35;1.65;;;14.90;70.00;;;;;;4192922;28;20511;-61
2022/02/02 13:55:37;;;;;;;8.57;1.92;;;15.00;69.20;;;;;;4193061;28;20484;-61
2022/02/02 13:58:29;;;;;;;11.23;1.70;;;15.00;68.90;;;;;;4191470;28;20052;-61
2022/02/02 14:00:58;;;;;;;10.93;2.38;;;15.00;68.80;;;;;;4192883;28;20055;-61
2022/02/02 14:06:18;;;;;;;14.63;2.37;;;15.10;68.60;;;;;;4176279;28;20103;-61
2022/02/02 14:32:56;;;;;;;10.50;2.22;;;15.30;68.50;;;;;;4176720;28;20793;-61
2022/02/02 14:35:19;;;;;;;15.30;2.45;;;15.40;68.30;;;;;;4181942;28;20127;-61
2022/02/02 14:37:43;;;;;;;17.92;3.72;;;15.40;68.20;;;;;;4192295;28;20465;-61
2022/02/02 14:40:19;;;;;;;13.90;3.00;;;15.40;68.20;;;;;;4192347;28;20075;-60
2022/02/02 14:42:43;;;;;;;9.48;1.75;;;15.40;68.20;;;;;;4175579;28;20057;-61
2022/02/02 14:45:12;;;;;;;12.02;3.38;;;15.30;68.30;;;;;;4185751;28;20048;-61
2022/02/02 14:47:36;;;;;;;12.25;3.30;;;15.30;68.20;;;;;;4177176;28;20053;-61
2022/02/02 14:50:05;;;;;;;6.80;1.92;;;15.30;68.20;;;;;;4180414;28;20475;-61
2022/02/02 14:52:36;;;;;;;9.05;2.08;;;15.30;68.40;;;;;;4190376;28;20110;-60
2022/02/02 14:55:33;;;;;;;10.47;2.27;;;15.30;68.60;;;;;;4191697;28;20049;-60
2022/02/02 15:09:11;;;;;;;10.98;2.67;;;15.50;68.10;;;;;;4178560;28;20087;-61
2022/02/02 15:27:37;;;;;;;14.90;2.20;;;15.40;68.20;;;;;;4158216;28;20388;-59
2022/02/02 15:30:11;;;;;;;16.30;2.40;;;15.40;68.40;;;;;;4156906;28;20053;-60
2022/02/02 15:32:35;;;;;;;12.68;2.47;;;15.40;68.50;;;;;;4156934;28;20058;-59
2022/02/02 15:34:59;;;;;;;14.75;2.85;;;15.50;68.60;;;;;;4157515;28;20087;-59
2022/02/02 15:37:32;;;;;;;17.02;3.25;;;15.50;68.40;;;;;;4157389;28;20053;-60
2022/02/02 15:40:02;;;;;;;11.73;2.85;;;15.60;68.30;;;;;;4156588;28;20046;-59
2022/02/02 15:42:37;;;;;;;11.57;2.95;;;15.60;68.00;;;;;;4157008;28;20191;-61
2022/02/02 15:54:43;;;;;;;13.10;2.63;;;15.70;67.70;;;;;;4156263;28;20486;-61
2022/02/02 15:58:36;;;;;;;12.45;2.67;;;17.40;63.80;;;;;;4137971;28;20152;-62
2022/02/02 16:03:41;;;;;;;13.25;2.70;;;18.60;60.30;;;;;;4140853;28;21322;-59
2022/02/02 16:06:10;;;;;;;9.77;2.47;;;19.20;58.70;;;;;;4155086;28;20104;-60
2022/02/02 16:08:35;;;;;;;9.38;2.35;;;19.70;57.50;;;;;;4142670;28;20493;-59
2022/02/02 16:11:14;;;;;;;12.52;3.55;;;20.10;56.60;;;;;;4140744;28;20398;-60
2022/02/02 16:13:40;;;;;;;6.40;2.72;;;20.30;55.90;;;;;;4138995;28;20507;-59
2022/02/02 16:16:13;;;;;;;11.55;2.97;;;20.40;55.60;;;;;;4147032;28;20056;-60
2022/02/02 16:18:41;;;;;;;8.30;2.20;;;20.40;55.50;;;;;;4135352;28;20061;-60
2022/02/02 16:31:58;;;;;;;8.48;2.72;;;19.70;57.00;;;;;;4107459;28;20450;-60
2022/02/02 16:37:04;;;;;;;8.48;2.53;;;19.20;57.90;;;;;;4137825;28;20460;-59
2022/02/02 16:39:26;;;;;;;11.38;2.42;;;19.00;58.50;;;;;;4144811;28;20099;-60
2022/02/02 16:44:28;;;;;;;7.55;2.15;;;18.90;59.10;;;;;;4143194;28;20092;-59
2022/02/02 16:46:53;;;;;;;10.32;2.33;;;18.90;59.00;;;;;;4145127;28;20146;-59
2022/02/02 16:49:15;;;;;;;10.85;2.58;;;19.00;58.90;;;;;;4144911;28;20100;-59
2022/02/02 16:51:37;;;;;;;11.38;2.92;;;19.00;58.80;;;;;;4145001;28;20057;-59
2022/02/02 16:54:02;;;;;;;11.57;2.80;;;19.10;58.70;;;;;;4145061;28;20495;-59
2022/02/02 16:56:34;;;;;;;10.38;2.80;;;19.10;58.60;;;;;;4142343;28;20405;-59
2022/02/02 17:31:13;;;;;;;12.00;2.50;;;19.10;58.80;;;;;;4127689;28;20478;-61
2022/02/02 17:33:37;;;;;;;14.73;2.85;;;19.00;58.90;;;;;;4111669;28;20483;-63
2022/02/02 17:36:20;;;;;;;13.48;2.70;;;18.90;59.00;;;;;;4111584;28;20051;-61
2022/02/02 17:38:51;;;;;;;9.23;2.25;;;18.90;59.30;;;;;;4111602;28;20051;-61
2022/02/02 17:41:24;;;;;;;9.13;2.67;;;18.80;59.50;;;;;;4111157;28;20047;-61
2022/02/02 17:44:12;;;;;;;9.95;2.45;;;18.80;59.60;;;;;;4117348;28;20085;-61
2022/02/02 18:18:52;;;;;;;12.65;4.53;;;19.10;59.00;;;;;;4127417;28;20455;-61
2022/02/02 18:21:16;;;;;;;13.68;5.65;;;19.10;59.10;;;;;;4111127;28;20478;-61
2022/02/02 18:23:47;;;;;;;16.23;7.20;;;19.00;59.20;;;;;;4111109;28;20047;-61
2022/02/02 18:26:16;;;;;;;14.02;6.50;;;18.90;59.20;;;;;;4110885;28;20058;-60
2022/02/02 18:28:46;;;;;;;9.45;5.10;;;18.80;59.60;;;;;;4123525;28;20061;-61
2022/02/02 18:31:31;;;;;;;16.63;4.97;;;18.80;59.90;;;;;;4113480;28;20054;-62
2022/02/02 18:33:55;;;;;;;12.48;4.72;;;18.70;60.20;;;;;;4126821;28;20057;-61
2022/02/02 18:36:32;;;;;;;20.75;4.78;;;18.70;60.30;;;;;;4125430;28;20149;-62
2022/02/02 18:47:03;;;;;;;11.75;3.58;;;18.80;60.10;;;;;;4126887;28;20486;-60
2022/02/02 18:49:40;;;;;;;13.38;3.90;;;18.80;59.90;;;;;;4126999;28;20457;-61
2022/02/02 18:55:08;;;;;;;21.77;4.82;;;18.80;59.80;;;;;;4124842;28;20125;-62
2022/02/02 18:57:42;;;;;;;13.65;3.50;;;18.70;60.00;;;;;;4126711;28;20097;-62
2022/02/02 19:03:11;;;;;;;18.77;5.00;;;18.80;60.20;;;;;;4126308;28;20105;-61
2022/02/02 19:37:59;;;;;;;19.48;5.20;;;18.40;61.30;;;;;;4140967;28;20073;-60
2022/02/02 19:40:23;;;;;;;18.90;5.55;;;18.50;61.30;;;;;;4142421;28;20049;-60
2022/02/02 19:56:40;;;;;;;16.85;4.65;;;18.80;60.40;;;;;;4099427;28;20042;-61